Aviation Digital Data Service (ADDS)

Output produced by METARs form (1813 UTC 30 August 2014)
found at http://aviationweather.gov/adds/metars/
 
KARA 301739Z 3018/3118 12005KT 3SM RA FEW007 SCT017 OVC025 
     TEMPO 3018/3022 VRB13G22KT 2SM TSRA FEW008 SCT025CB OVC050 
     FM302200 19009KT P6SM SHRA SCT015 BKN025 OVC050 
     TEMPO 3022/3102 VRB13G20KT 4SM -TSRA OVC015CB 
     FM310200 18007KT P6SM -SHRA SCT018 OVC025 
     FM310500 18005KT P6SM VCSH FEW012 OVC025 
     FM310900 16002KT 4SM BR OVC015